Davis, OK (73030)

4:28 PM CDT on September 20, 2014 (GMT -0500)
KOKSULPH2 | Change Station
CLOSE
Current Station
Personal Weather Station
Location: Sulphur, OK
Elevation: 980 ft
Nearby Weather Stations

Elev 980 ft 34.50 °N, 96.99 °W | Updated 5 seconds ago

Partly Cloudy
Partly Cloudy
85.1 °F
Feels Like 88 °F
N
4.7
Wind Variable Wind from SSW
Gusts 8.5 mph

Today
High -- | Low -- °F
--% Chance of Precip.
Yesterday
High -- | Low -- °F
Precip. -- in
7:15 AM 7:28 PM
Waning Crescent, 10% visible
Pressure 29.97 in
Visibility 10.0 miles
Clouds Scattered Clouds 4600 ft
Mostly Cloudy 6000 ft
Mostly Cloudy 9000 ft
Heat Index 88 °F
Dew Point 68 °F
Humidity 56%
Rainfall 0.00 in
Snow Depth Not available.
UV 3 out of 12
Pollen 9.80 out of 12
Air Quality Not available.
Flu Activity Not available.
METAR KADM 202055Z 14005KT 10SM SCT046 BKN060 BKN090 30/21 A2997

More Conditions Fewer Conditions

Pressure 29.97 in
Visibility 10.0 miles
Clouds Scattered Clouds 4600 ft
Mostly Cloudy 6000 ft
Mostly Cloudy 9000 ft
Heat Index 88 °F
Dew Point 68 °F
Humidity 56%
Rainfall 0.00 in
Snow Depth Not available.
UV 3 out of 12
Pollen 9.80 out of 12
Air Quality Not available.
Flu Activity Not available.
METAR KADM 202055Z 14005KT 10SM SCT046 BKN060 BKN090 30/21 A2997

More Conditions Fewer Conditions

10-Day Weather Forecast

Almanac

Astronomy

Sep. 20, 2014 Rise Set
Actual Time 7:15 AM CDT 7:28 PM CDT
Civil Twilight 6:49 AM CDT 7:53 PM CDT
Nautical Twilight 6:20 AM CDT 8:22 PM CDT
Astronomical Twilight 5:50 AM CDT 8:52 PM CDT
Moon 4:02 AM CDT 5:26 PM CDT
Length of Visible Light 13h 03m
Length of Day
12h 12m
Tomorrow will be 2m 8s shorter.
Waning Crescent, 10% of the Moon is Illuminated
Today
Waning Crescent
Sep 24
New
Oct 1
First Quarter
Oct 8
Full
Oct 15
Last Quarter

Today's Extremes

State Highs State Lows

Community

WunderPhotos

Upload Photos

1,754,947 photos uploaded!

WunderBlogs® & News

Nearby

Snow Depth

Station Depth Elevation
No new snow has been reported.

Earthquake Activity

City Distance Mag. Time & Date
Luther, Oklahoma 80 miles 2.7 4:47 PM CDT
2014-09-19
Guthrie, Oklahoma 92 miles 3.6 12:23 PM CDT
2014-09-19
Jones, Oklahoma 74 miles 2.8 1:13 AM CDT
2014-09-19
Perry, Oklahoma 116 miles 3.3 12:08 AM CDT
2014-09-19
Minimum magnitude displayed is 2.5.

Coastal Water Temperatures

Place Temperature
No Stations Reporting

Nearby Weather Stations